sensor_id;sensor_type;location;lat;lon;timestamp;pressure;altitude;pressure_sealevel;temperature;humidity
38452;BME280;24231;52.514;13.438;2023-05-23T00:01:49;100720.52;;;19.19;35.80
38452;BME280;24231;52.514;13.438;2023-05-23T00:04:16;100716.21;;;18.82;36.33
38452;BME280;24231;52.514;13.438;2023-05-23T00:06:43;100720.19;;;18.65;36.62
38452;BME280;24231;52.514;13.438;2023-05-23T00:09:10;100721.26;;;19.03;36.08
38452;BME280;24231;52.514;13.438;2023-05-23T00:11:37;100723.33;;;19.07;35.79
38452;BME280;24231;52.514;13.438;2023-05-23T00:14:05;100718.54;;;19.40;35.28
38452;BME280;24231;52.514;13.438;2023-05-23T00:16:32;100716.96;;;19.58;34.78
38452;BME280;24231;52.514;13.438;2023-05-23T00:18:58;100712.79;;;18.84;35.86
38452;BME280;24231;52.514;13.438;2023-05-23T00:21:25;100716.99;;;19.17;35.94
38452;BME280;24231;52.514;13.438;2023-05-23T00:23:58;100713.43;;;18.59;37.10
38452;BME280;24231;52.514;13.438;2023-05-23T00:26:25;100712.10;;;18.46;37.12
38452;BME280;24231;52.514;13.438;2023-05-23T00:28:52;100709.90;;;18.56;37.68
38452;BME280;24231;52.514;13.438;2023-05-23T00:31:19;100705.44;;;18.57;37.32
38452;BME280;24231;52.514;13.438;2023-05-23T00:33:47;100700.96;;;18.28;37.70
38452;BME280;24231;52.514;13.438;2023-05-23T00:36:14;100702.41;;;18.00;38.21
38452;BME280;24231;52.514;13.438;2023-05-23T00:38:41;100704.14;;;17.88;38.59
38452;BME280;24231;52.514;13.438;2023-05-23T00:41:08;100697.44;;;18.01;38.25
38452;BME280;24231;52.514;13.438;2023-05-23T00:43:35;100700.37;;;18.13;38.09
38452;BME280;24231;52.514;13.438;2023-05-23T00:46:02;100697.82;;;18.33;37.80
38452;BME280;24231;52.514;13.438;2023-05-23T00:48:30;100702.09;;;18.09;38.30
38452;BME280;24231;52.514;13.438;2023-05-23T00:50:58;100698.99;;;17.99;38.37
38452;BME280;24231;52.514;13.438;2023-05-23T00:53:25;100694.92;;;18.20;38.48
38452;BME280;24231;52.514;13.438;2023-05-23T00:55:53;100693.61;;;17.74;39.24
38452;BME280;24231;52.514;13.438;2023-05-23T00:58:20;100686.70;;;17.80;38.83
38452;BME280;24231;52.514;13.438;2023-05-23T01:00:48;100682.85;;;18.38;38.04
38452;BME280;24231;52.514;13.438;2023-05-23T01:03:15;100682.10;;;18.05;38.61
38452;BME280;24231;52.514;13.438;2023-05-23T01:05:43;100677.56;;;18.24;37.91
38452;BME280;24231;52.514;13.438;2023-05-23T01:08:11;100677.14;;;18.32;37.95
38452;BME280;24231;52.514;13.438;2023-05-23T01:10:38;100675.48;;;18.73;37.38
38452;BME280;24231;52.514;13.438;2023-05-23T01:13:16;100669.95;;;18.41;37.82
38452;BME280;24231;52.514;13.438;2023-05-23T01:15:50;100664.87;;;18.41;37.60
38452;BME280;24231;52.514;13.438;2023-05-23T01:18:25;100661.93;;;18.50;37.60
38452;BME280;24231;52.514;13.438;2023-05-23T01:20:55;100661.02;;;18.51;37.66
38452;BME280;24231;52.514;13.438;2023-05-23T01:23:52;100659.97;;;18.90;36.74
38452;BME280;24231;52.514;13.438;2023-05-23T01:26:32;100662.25;;;18.99;36.75
38452;BME280;24231;52.514;13.438;2023-05-23T01:29:02;100660.55;;;19.09;36.60
38452;BME280;24231;52.514;13.438;2023-05-23T01:31:31;100659.34;;;18.45;37.70
38452;BME280;24231;52.514;13.438;2023-05-23T01:34:01;100655.73;;;18.38;37.88
38452;BME280;24231;52.514;13.438;2023-05-23T01:36:32;100652.36;;;18.20;38.41
38452;BME280;24231;52.514;13.438;2023-05-23T01:38:59;100652.26;;;18.08;38.53
38452;BME280;24231;52.514;13.438;2023-05-23T01:41:26;100651.21;;;18.48;37.83
38452;BME280;24231;52.514;13.438;2023-05-23T01:43:53;100652.80;;;18.51;37.64
38452;BME280;24231;52.514;13.438;2023-05-23T01:46:21;100653.19;;;18.51;37.72
38452;BME280;24231;52.514;13.438;2023-05-23T01:48:49;100646.86;;;17.76;39.22
38452;BME280;24231;52.514;13.438;2023-05-23T01:51:16;100644.59;;;17.60;39.67
38452;BME280;24231;52.514;13.438;2023-05-23T01:53:43;100647.99;;;17.40;39.94
38452;BME280;24231;52.514;13.438;2023-05-23T01:56:10;100638.18;;;18.20;38.83
38452;BME280;24231;52.514;13.438;2023-05-23T01:58:37;100637.95;;;17.73;39.51
38452;BME280;24231;52.514;13.438;2023-05-23T02:01:04;100639.44;;;17.56;39.91
38452;BME280;24231;52.514;13.438;2023-05-23T02:03:31;100642.30;;;17.34;40.12
38452;BME280;24231;52.514;13.438;2023-05-23T02:05:58;100641.41;;;17.71;39.52
38452;BME280;24231;52.514;13.438;2023-05-23T02:08:25;100641.14;;;17.87;39.38
38452;BME280;24231;52.514;13.438;2023-05-23T02:10:52;100636.87;;;18.65;37.83
38452;BME280;24231;52.514;13.438;2023-05-23T02:13:19;100639.26;;;18.97;37.41
38452;BME280;24231;52.514;13.438;2023-05-23T02:15:46;100642.32;;;18.73;37.77
38452;BME280;24231;52.514;13.438;2023-05-23T02:18:13;100641.65;;;19.47;35.92
38452;BME280;24231;52.514;13.438;2023-05-23T02:20:40;100642.56;;;20.09;34.89
38452;BME280;24231;52.514;13.438;2023-05-23T02:23:07;100654.01;;;19.11;36.65
38452;BME280;24231;52.514;13.438;2023-05-23T02:25:34;100654.13;;;19.47;36.21
38452;BME280;24231;52.514;13.438;2023-05-23T02:28:01;100653.82;;;19.15;36.62
38452;BME280;24231;52.514;13.438;2023-05-23T02:30:28;100651.23;;;19.24;36.50
38452;BME280;24231;52.514;13.438;2023-05-23T02:32:55;100650.27;;;19.84;35.33
38452;BME280;24231;52.514;13.438;2023-05-23T02:35:22;100654.67;;;19.24;36.61
38452;BME280;24231;52.514;13.438;2023-05-23T02:37:49;100650.40;;;18.76;37.57
38452;BME280;24231;52.514;13.438;2023-05-23T02:40:16;100649.35;;;18.52;38.31
38452;BME280;24231;52.514;13.438;2023-05-23T02:42:43;100643.66;;;18.95;37.16
38452;BME280;24231;52.514;13.438;2023-05-23T02:45:11;100640.26;;;17.81;39.68
38452;BME280;24231;52.514;13.438;2023-05-23T02:47:38;100633.70;;;18.82;37.70
38452;BME280;24231;52.514;13.438;2023-05-23T02:50:06;100631.50;;;18.06;39.23
38452;BME280;24231;52.514;13.438;2023-05-23T02:52:34;100635.32;;;18.47;38.60
38452;BME280;24231;52.514;13.438;2023-05-23T02:55:01;100636.53;;;19.36;36.93
38452;BME280;24231;52.514;13.438;2023-05-23T02:57:28;100635.55;;;18.56;38.09
38452;BME280;24231;52.514;13.438;2023-05-23T02:59:55;100632.22;;;17.92;39.68
38452;BME280;24231;52.514;13.438;2023-05-23T03:02:22;100635.91;;;18.48;38.82
38452;BME280;24231;52.514;13.438;2023-05-23T03:04:49;100637.08;;;18.94;38.07
38452;BME280;24231;52.514;13.438;2023-05-23T03:07:16;100636.88;;;18.41;38.98
38452;BME280;24231;52.514;13.438;2023-05-23T03:09:43;100630.49;;;17.44;40.89
38452;BME280;24231;52.514;13.438;2023-05-23T03:12:11;100627.28;;;17.60;40.62
38452;BME280;24231;52.514;13.438;2023-05-23T03:14:38;100629.76;;;17.39;40.80
38452;BME280;24231;52.514;13.438;2023-05-23T03:17:05;100632.71;;;18.44;38.93
38452;BME280;24231;52.514;13.438;2023-05-23T03:19:32;100640.09;;;18.49;38.40
38452;BME280;24231;52.514;13.438;2023-05-23T03:22:04;100636.95;;;18.86;37.80
38452;BME280;24231;52.514;13.438;2023-05-23T03:24:36;100630.82;;;20.15;35.79
38452;BME280;24231;52.514;13.438;2023-05-23T03:27:04;100636.19;;;19.09;37.00
38452;BME280;24231;52.514;13.438;2023-05-23T03:29:31;100632.34;;;18.89;37.31
38452;BME280;24231;52.514;13.438;2023-05-23T03:31:58;100628.24;;;18.11;39.06
38452;BME280;24231;52.514;13.438;2023-05-23T03:34:25;100630.23;;;17.57;40.43
38452;BME280;24231;52.514;13.438;2023-05-23T03:36:53;100629.03;;;17.73;40.55
38452;BME280;24231;52.514;13.438;2023-05-23T03:39:20;100627.95;;;17.80;40.64
38452;BME280;24231;52.514;13.438;2023-05-23T03:41:47;100627.29;;;18.01;40.37
38452;BME280;24231;52.514;13.438;2023-05-23T03:44:14;100624.49;;;18.42;39.31
38452;BME280;24231;52.514;13.438;2023-05-23T03:46:41;100618.75;;;17.97;40.72
38452;BME280;24231;52.514;13.438;2023-05-23T03:49:08;100617.79;;;17.25;42.06
38452;BME280;24231;52.514;13.438;2023-05-23T03:51:35;100613.67;;;17.77;41.00
38452;BME280;24231;52.514;13.438;2023-05-23T03:54:02;100613.94;;;17.99;40.63
38452;BME280;24231;52.514;13.438;2023-05-23T03:56:29;100614.85;;;17.41;41.78
38452;BME280;24231;52.514;13.438;2023-05-23T03:58:56;100617.23;;;17.35;41.94
38452;BME280;24231;52.514;13.438;2023-05-23T04:01:23;100609.01;;;18.04;40.59
38452;BME280;24231;52.514;13.438;2023-05-23T04:03:50;100612.24;;;17.23;41.85
38452;BME280;24231;52.514;13.438;2023-05-23T04:06:26;100607.03;;;18.00;40.55
38452;BME280;24231;52.514;13.438;2023-05-23T04:08:53;100611.21;;;18.54;38.81
38452;BME280;24231;52.514;13.438;2023-05-23T04:11:20;100612.53;;;18.75;38.41
38452;BME280;24231;52.514;13.438;2023-05-23T04:13:47;100610.78;;;17.85;40.23
38452;BME280;24231;52.514;13.438;2023-05-23T04:16:14;100612.50;;;17.20;41.84
38452;BME280;24231;52.514;13.438;2023-05-23T04:18:41;100613.58;;;19.30;38.08
38452;BME280;24231;52.514;13.438;2023-05-23T04:21:08;100608.36;;;18.22;40.24
38452;BME280;24231;52.514;13.438;2023-05-23T04:23:35;100606.47;;;17.99;40.56
38452;BME280;24231;52.514;13.438;2023-05-23T04:26:02;100611.55;;;17.90;40.97
38452;BME280;24231;52.514;13.438;2023-05-23T04:28:29;100619.73;;;17.18;42.55
38452;BME280;24231;52.514;13.438;2023-05-23T04:30:56;100625.92;;;17.71;41.10
38452;BME280;24231;52.514;13.438;2023-05-23T04:33:24;100630.82;;;18.16;40.37
38452;BME280;24231;52.514;13.438;2023-05-23T04:35:51;100629.13;;;17.89;40.81
38452;BME280;24231;52.514;13.438;2023-05-23T04:38:19;100621.96;;;17.83;40.92
38452;BME280;24231;52.514;13.438;2023-05-23T04:40:46;100612.08;;;18.06;40.54
38452;BME280;24231;52.514;13.438;2023-05-23T04:43:13;100609.22;;;18.17;40.36
38452;BME280;24231;52.514;13.438;2023-05-23T04:45:41;100609.79;;;18.89;39.11
38452;BME280;24231;52.514;13.438;2023-05-23T04:48:08;100604.90;;;20.04;36.86
38452;BME280;24231;52.514;13.438;2023-05-23T04:50:35;100613.53;;;18.88;38.91
38452;BME280;24231;52.514;13.438;2023-05-23T04:53:02;100614.25;;;19.02;38.72
38452;BME280;24231;52.514;13.438;2023-05-23T04:55:29;100614.48;;;18.73;39.56
38452;BME280;24231;52.514;13.438;2023-05-23T04:57:57;100610.52;;;18.18;41.11
38452;BME280;24231;52.514;13.438;2023-05-23T05:00:24;100609.91;;;17.37;42.95
38452;BME280;24231;52.514;13.438;2023-05-23T05:02:51;100611.56;;;18.47;41.06
38452;BME280;24231;52.514;13.438;2023-05-23T05:05:18;100606.62;;;18.49;40.83
38452;BME280;24231;52.514;13.438;2023-05-23T05:07:45;100606.25;;;18.27;40.62
38452;BME280;24231;52.514;13.438;2023-05-23T05:10:12;100605.79;;;17.66;42.01
38452;BME280;24231;52.514;13.438;2023-05-23T05:12:39;100600.47;;;17.63;41.88
38452;BME280;24231;52.514;13.438;2023-05-23T05:15:07;100600.19;;;17.91;41.57
38452;BME280;24231;52.514;13.438;2023-05-23T05:17:35;100606.11;;;17.95;41.47
38452;BME280;24231;52.514;13.438;2023-05-23T05:20:02;100608.91;;;19.16;39.13
38452;BME280;24231;52.514;13.438;2023-05-23T05:22:29;100605.58;;;19.66;38.15
38452;BME280;24231;52.514;13.438;2023-05-23T05:24:56;100609.28;;;19.26;38.42
38452;BME280;24231;52.514;13.438;2023-05-23T05:27:23;100606.25;;;19.91;37.54
38452;BME280;24231;52.514;13.438;2023-05-23T05:29:50;100612.23;;;21.43;34.88
38452;BME280;24231;52.514;13.438;2023-05-23T05:32:17;100611.74;;;21.80;34.11
38452;BME280;24231;52.514;13.438;2023-05-23T05:34:44;100613.73;;;22.06;33.55
38452;BME280;24231;52.514;13.438;2023-05-23T05:37:12;100613.92;;;22.29;33.03
38452;BME280;24231;52.514;13.438;2023-05-23T05:39:39;100613.42;;;22.20;33.09
38452;BME280;24231;52.514;13.438;2023-05-23T05:42:06;100617.17;;;21.68;33.83
38452;BME280;24231;52.514;13.438;2023-05-23T05:44:33;100622.17;;;22.62;32.74
38452;BME280;24231;52.514;13.438;2023-05-23T05:47:00;100627.63;;;22.00;33.91
38452;BME280;24231;52.514;13.438;2023-05-23T05:49:28;100630.15;;;22.78;32.92
38452;BME280;24231;52.514;13.438;2023-05-23T05:51:55;100622.88;;;22.43;33.05
38452;BME280;24231;52.514;13.438;2023-05-23T05:54:22;100616.16;;;22.33;33.12
38452;BME280;24231;52.514;13.438;2023-05-23T05:56:50;100614.87;;;22.44;33.12
38452;BME280;24231;52.514;13.438;2023-05-23T05:59:17;100613.77;;;22.75;32.78
38452;BME280;24231;52.514;13.438;2023-05-23T06:01:44;100611.61;;;22.25;33.23
38452;BME280;24231;52.514;13.438;2023-05-23T06:04:12;100606.81;;;22.52;32.64
38452;BME280;24231;52.514;13.438;2023-05-23T06:06:39;100605.84;;;20.18;36.83
38452;BME280;24231;52.514;13.438;2023-05-23T06:09:06;100602.84;;;22.08;34.02
38452;BME280;24231;52.514;13.438;2023-05-23T06:11:33;100602.80;;;22.91;33.18
38452;BME280;24231;52.514;13.438;2023-05-23T06:14:01;100602.67;;;22.85;32.73
38452;BME280;24231;52.514;13.438;2023-05-23T06:16:28;100597.61;;;22.85;32.72
38452;BME280;24231;52.514;13.438;2023-05-23T06:18:55;100594.76;;;20.37;36.40
38452;BME280;24231;52.514;13.438;2023-05-23T06:21:22;100601.05;;;21.25;35.46
38452;BME280;24231;52.514;13.438;2023-05-23T06:23:50;100599.14;;;21.50;34.93
38452;BME280;24231;52.514;13.438;2023-05-23T06:26:16;100601.95;;;20.22;36.85
38452;BME280;24231;52.514;13.438;2023-05-23T06:28:44;100603.49;;;20.70;35.91
38452;BME280;24231;52.514;13.438;2023-05-23T06:31:11;100600.94;;;21.83;34.50
38452;BME280;24231;52.514;13.438;2023-05-23T06:33:38;100598.34;;;20.54;36.02
38452;BME280;24231;52.514;13.438;2023-05-23T06:36:06;100597.41;;;20.78;35.82
38452;BME280;24231;52.514;13.438;2023-05-23T06:38:33;100592.55;;;22.17;33.52
38452;BME280;24231;52.514;13.438;2023-05-23T06:41:01;100594.08;;;22.93;32.73
38452;BME280;24231;52.514;13.438;2023-05-23T06:43:28;100596.21;;;22.83;33.04
38452;BME280;24231;52.514;13.438;2023-05-23T06:45:55;100597.76;;;22.70;33.10
38452;BME280;24231;52.514;13.438;2023-05-23T06:48:22;100598.93;;;22.21;34.21
38452;BME280;24231;52.514;13.438;2023-05-23T06:50:49;100599.79;;;22.64;33.74
38452;BME280;24231;52.514;13.438;2023-05-23T06:53:16;100598.21;;;23.03;33.28
38452;BME280;24231;52.514;13.438;2023-05-23T06:55:43;100601.06;;;23.54;32.82
38452;BME280;24231;52.514;13.438;2023-05-23T06:58:10;100605.04;;;22.95;33.18
38452;BME280;24231;52.514;13.438;2023-05-23T07:00:38;100599.72;;;23.96;31.81
38452;BME280;24231;52.514;13.438;2023-05-23T07:03:06;100603.28;;;23.33;32.64
38452;BME280;24231;52.514;13.438;2023-05-23T07:05:33;100596.36;;;24.15;31.86
38452;BME280;24231;52.514;13.438;2023-05-23T07:08:00;100597.13;;;23.94;31.97
38452;BME280;24231;52.514;13.438;2023-05-23T07:10:28;100600.35;;;23.82;32.76
38452;BME280;24231;52.514;13.438;2023-05-23T07:12:55;100598.59;;;24.29;31.91
38452;BME280;24231;52.514;13.438;2023-05-23T07:15:22;100602.67;;;22.64;33.40
38452;BME280;24231;52.514;13.438;2023-05-23T07:17:49;100605.55;;;23.05;32.81
38452;BME280;24231;52.514;13.438;2023-05-23T07:20:17;100604.16;;;22.58;33.15
38452;BME280;24231;52.514;13.438;2023-05-23T07:22:44;100603.91;;;22.05;34.21
38452;BME280;24231;52.514;13.438;2023-05-23T07:25:11;100602.30;;;23.47;32.86
38452;BME280;24231;52.514;13.438;2023-05-23T07:27:38;100603.25;;;23.51;32.44
38452;BME280;24231;52.514;13.438;2023-05-23T07:30:06;100599.05;;;23.72;32.62
38452;BME280;24231;52.514;13.438;2023-05-23T07:32:34;100599.44;;;24.36;31.29
38452;BME280;24231;52.514;13.438;2023-05-23T07:35:01;100596.53;;;23.97;31.32
38452;BME280;24231;52.514;13.438;2023-05-23T07:37:29;100593.85;;;23.81;31.78
38452;BME280;24231;52.514;13.438;2023-05-23T07:39:56;100595.21;;;22.84;33.00
38452;BME280;24231;52.514;13.438;2023-05-23T07:42:23;100587.53;;;24.41;30.59
38452;BME280;24231;52.514;13.438;2023-05-23T07:44:50;100585.96;;;24.80;30.18
38452;BME280;24231;52.514;13.438;2023-05-23T07:47:18;100586.67;;;24.67;30.56
38452;BME280;24231;52.514;13.438;2023-05-23T07:49:45;100590.99;;;24.32;31.32
38452;BME280;24231;52.514;13.438;2023-05-23T07:52:12;100599.34;;;23.68;32.41
38452;BME280;24231;52.514;13.438;2023-05-23T07:54:40;100596.24;;;24.31;31.42
38452;BME280;24231;52.514;13.438;2023-05-23T07:57:07;100594.92;;;24.28;31.69
38452;BME280;24231;52.514;13.438;2023-05-23T07:59:34;100592.85;;;24.54;31.13
38452;BME280;24231;52.514;13.438;2023-05-23T08:02:01;100598.02;;;24.34;31.86
38452;BME280;24231;52.514;13.438;2023-05-23T08:04:29;100603.84;;;24.31;31.39
38452;BME280;24231;52.514;13.438;2023-05-23T08:06:57;100608.10;;;24.56;31.59
38452;BME280;24231;52.514;13.438;2023-05-23T08:09:24;100609.34;;;24.43;31.52
38452;BME280;24231;52.514;13.438;2023-05-23T08:11:51;100611.50;;;23.55;32.79
38452;BME280;24231;52.514;13.438;2023-05-23T08:14:18;100611.50;;;23.89;32.28
38452;BME280;24231;52.514;13.438;2023-05-23T08:16:46;100619.24;;;22.37;34.50
38452;BME280;24231;52.514;13.438;2023-05-23T08:19:12;100614.09;;;22.92;33.97
38452;BME280;24231;52.514;13.438;2023-05-23T08:21:40;100617.12;;;23.37;33.58
38452;BME280;24231;52.514;13.438;2023-05-23T08:24:07;100610.73;;;24.44;31.56
38452;BME280;24231;52.514;13.438;2023-05-23T08:26:34;100614.01;;;24.08;32.35
38452;BME280;24231;52.514;13.438;2023-05-23T08:29:01;100613.18;;;24.97;30.95
38452;BME280;24231;52.514;13.438;2023-05-23T08:31:28;100617.04;;;25.52;30.53
38452;BME280;24231;52.514;13.438;2023-05-23T08:33:55;100623.45;;;25.46;30.35
38452;BME280;24231;52.514;13.438;2023-05-23T08:36:22;100627.62;;;25.12;31.07
38452;BME280;24231;52.514;13.438;2023-05-23T08:38:50;100629.22;;;25.17;31.39
38452;BME280;24231;52.514;13.438;2023-05-23T08:41:19;100632.32;;;24.69;31.74
38452;BME280;24231;52.514;13.438;2023-05-23T08:43:47;100635.14;;;24.15;32.90
38452;BME280;24231;52.514;13.438;2023-05-23T08:46:15;100639.33;;;23.45;33.87
38452;BME280;24231;52.514;13.438;2023-05-23T08:48:43;100642.85;;;23.29;34.62
38452;BME280;24231;52.514;13.438;2023-05-23T08:51:14;100641.46;;;23.84;34.13
38452;BME280;24231;52.514;13.438;2023-05-23T08:53:42;100642.13;;;23.61;34.64
38452;BME280;24231;52.514;13.438;2023-05-23T08:56:12;100643.54;;;23.60;34.83
38452;BME280;24231;52.514;13.438;2023-05-23T08:58:40;100641.41;;;24.40;33.92
38452;BME280;24231;52.514;13.438;2023-05-23T09:01:08;100647.00;;;24.35;33.65
38452;BME280;24231;52.514;13.438;2023-05-23T09:03:35;100648.05;;;24.31;33.90
38452;BME280;24231;52.514;13.438;2023-05-23T09:06:03;100649.06;;;25.25;32.79
38452;BME280;24231;52.514;13.438;2023-05-23T09:08:32;100650.32;;;24.40;34.62
38452;BME280;24231;52.514;13.438;2023-05-23T09:11:00;100652.27;;;25.19;33.89
38452;BME280;24231;52.514;13.438;2023-05-23T09:13:28;100655.81;;;25.39;33.31
38452;BME280;24231;52.514;13.438;2023-05-23T09:16:00;100653.57;;;26.08;32.67
38452;BME280;24231;52.514;13.438;2023-05-23T09:18:32;100652.89;;;26.42;32.19
38452;BME280;24231;52.514;13.438;2023-05-23T09:21:00;100652.48;;;26.75;32.08
38452;BME280;24231;52.514;13.438;2023-05-23T09:23:29;100654.69;;;27.01;31.67
38452;BME280;24231;52.514;13.438;2023-05-23T09:26:01;100653.82;;;26.37;32.52
38452;BME280;24231;52.514;13.438;2023-05-23T09:28:29;100656.23;;;25.86;33.68
38452;BME280;24231;52.514;13.438;2023-05-23T09:30:57;100656.67;;;26.29;33.18
38452;BME280;24231;52.514;13.438;2023-05-23T09:33:32;100657.15;;;25.91;34.07
38452;BME280;24231;52.514;13.438;2023-05-23T09:35:59;100652.07;;;26.37;33.72
38452;BME280;24231;52.514;13.438;2023-05-23T09:38:27;100651.44;;;26.93;32.79
38452;BME280;24231;52.514;13.438;2023-05-23T09:40:54;100650.51;;;27.45;32.33
38452;BME280;24231;52.514;13.438;2023-05-23T09:43:22;100653.06;;;26.58;33.77
38452;BME280;24231;52.514;13.438;2023-05-23T09:45:51;100654.82;;;27.61;32.92
38452;BME280;24231;52.514;13.438;2023-05-23T09:48:18;100655.91;;;27.13;33.23
38452;BME280;24231;52.514;13.438;2023-05-23T09:50:45;100652.39;;;28.02;32.69
38452;BME280;24231;52.514;13.438;2023-05-23T09:53:13;100651.70;;;28.29;32.35
38452;BME280;24231;52.514;13.438;2023-05-23T09:55:40;100656.98;;;27.74;33.18
38452;BME280;24231;52.514;13.438;2023-05-23T09:58:07;100652.32;;;27.91;32.29
38452;BME280;24231;52.514;13.438;2023-05-23T10:00:34;100653.31;;;27.60;33.10
38452;BME280;24231;52.514;13.438;2023-05-23T10:03:08;100653.69;;;26.62;34.46
38452;BME280;24231;52.514;13.438;2023-05-23T10:05:40;100655.94;;;26.24;35.41
38452;BME280;24231;52.514;13.438;2023-05-23T10:08:10;100653.67;;;27.15;34.00
38452;BME280;24231;52.514;13.438;2023-05-23T10:11:29;100659.27;;;25.06;37.53
38452;BME280;24231;52.514;13.438;2023-05-23T10:14:21;100664.84;;;25.85;36.38
38452;BME280;24231;52.514;13.438;2023-05-23T10:16:57;100661.26;;;26.09;36.05
38452;BME280;24231;52.514;13.438;2023-05-23T10:19:49;100658.75;;;26.24;35.97
38452;BME280;24231;52.514;13.438;2023-05-23T10:22:20;100663.61;;;26.26;35.19
38452;BME280;24231;52.514;13.438;2023-05-23T10:24:49;100664.67;;;26.50;34.52
38452;BME280;24231;52.514;13.438;2023-05-23T10:27:16;100665.59;;;26.67;34.22
38452;BME280;24231;52.514;13.438;2023-05-23T10:29:44;100666.63;;;25.80;35.77
38452;BME280;24231;52.514;13.438;2023-05-23T10:32:12;100665.88;;;26.66;35.22
38452;BME280;24231;52.514;13.438;2023-05-23T10:34:44;100667.03;;;27.41;34.08
38452;BME280;24231;52.514;13.438;2023-05-23T10:37:25;100661.54;;;27.23;34.46
38452;BME280;24231;52.514;13.438;2023-05-23T10:40:00;100658.20;;;27.30;34.58
38452;BME280;24231;52.514;13.438;2023-05-23T10:42:36;100658.01;;;26.98;35.25
38452;BME280;24231;52.514;13.438;2023-05-23T10:45:16;100658.78;;;26.24;36.67
38452;BME280;24231;52.514;13.438;2023-05-23T10:47:46;100653.76;;;25.95;37.45
38452;BME280;24231;52.514;13.438;2023-05-23T10:50:15;100660.63;;;26.58;36.97
38452;BME280;24231;52.514;13.438;2023-05-23T10:52:43;100660.03;;;26.26;37.38
38452;BME280;24231;52.514;13.438;2023-05-23T10:55:14;100665.99;;;26.58;36.80
38452;BME280;24231;52.514;13.438;2023-05-23T10:57:42;100672.08;;;25.24;40.30
38452;BME280;24231;52.514;13.438;2023-05-23T11:00:13;100681.22;;;24.66;42.86
38452;BME280;24231;52.514;13.438;2023-05-23T11:02:52;100679.90;;;25.12;42.11
38452;BME280;24231;52.514;13.438;2023-05-23T11:05:20;100682.75;;;25.53;41.58
38452;BME280;24231;52.514;13.438;2023-05-23T11:08:06;100681.77;;;24.34;44.38
38452;BME280;24231;52.514;13.438;2023-05-23T11:10:51;100683.41;;;24.86;43.32
38452;BME280;24231;52.514;13.438;2023-05-23T11:13:19;100685.79;;;24.42;44.08
38452;BME280;24231;52.514;13.438;2023-05-23T11:15:47;100687.62;;;25.34;42.30
38452;BME280;24231;52.514;13.438;2023-05-23T11:18:26;100688.47;;;24.84;43.70
38452;BME280;24231;52.514;13.438;2023-05-23T11:20:54;100688.11;;;24.85;44.19
38452;BME280;24231;52.514;13.438;2023-05-23T11:23:23;100694.87;;;23.82;45.86
38452;BME280;24231;52.514;13.438;2023-05-23T11:26:28;100690.94;;;24.96;43.33
38452;BME280;24231;52.514;13.438;2023-05-23T11:28:55;100690.23;;;24.45;44.10
38452;BME280;24231;52.514;13.438;2023-05-23T11:31:23;100688.92;;;24.44;44.35
38452;BME280;24231;52.514;13.438;2023-05-23T11:33:50;100695.29;;;24.00;45.11
38452;BME280;24231;52.514;13.438;2023-05-23T11:36:18;100692.74;;;23.98;45.54
38452;BME280;24231;52.514;13.438;2023-05-23T11:38:46;100696.90;;;23.91;45.72
38452;BME280;24231;52.514;13.438;2023-05-23T11:41:14;100697.40;;;23.74;45.96
38452;BME280;24231;52.514;13.438;2023-05-23T11:43:49;100701.26;;;23.08;47.57
38452;BME280;24231;52.514;13.438;2023-05-23T11:46:16;100703.40;;;23.50;46.70
38452;BME280;24231;52.514;13.438;2023-05-23T11:48:44;100699.07;;;24.32;44.75
38452;BME280;24231;52.514;13.438;2023-05-23T11:51:12;100697.50;;;24.36;44.65
38452;BME280;24231;52.514;13.438;2023-05-23T11:53:40;100707.62;;;23.60;46.08
38452;BME280;24231;52.514;13.438;2023-05-23T11:56:07;100708.43;;;24.20;44.83
38452;BME280;24231;52.514;13.438;2023-05-23T11:58:36;100709.23;;;24.36;44.41
38452;BME280;24231;52.514;13.438;2023-05-23T12:01:04;100710.04;;;23.79;46.08
38452;BME280;24231;52.514;13.438;2023-05-23T12:03:33;100716.02;;;23.89;45.86
38452;BME280;24231;52.514;13.438;2023-05-23T12:06:00;100715.50;;;23.68;45.97
38452;BME280;24231;52.514;13.438;2023-05-23T12:08:28;100719.32;;;23.99;45.37
38452;BME280;24231;52.514;13.438;2023-05-23T12:10:57;100717.55;;;23.37;46.42
38452;BME280;24231;52.514;13.438;2023-05-23T12:13:27;100717.36;;;23.51;46.41
38452;BME280;24231;52.514;13.438;2023-05-23T12:15:55;100718.12;;;23.32;46.72
38452;BME280;24231;52.514;13.438;2023-05-23T12:18:24;100716.97;;;23.58;46.40
38452;BME280;24231;52.514;13.438;2023-05-23T12:20:53;100715.43;;;23.08;46.89
38452;BME280;24231;52.514;13.438;2023-05-23T12:23:21;100717.49;;;22.83;47.78
38452;BME280;24231;52.514;13.438;2023-05-23T12:25:50;100723.96;;;23.23;47.00
38452;BME280;24231;52.514;13.438;2023-05-23T12:28:18;100718.90;;;22.90;48.22
38452;BME280;24231;52.514;13.438;2023-05-23T12:30:46;100720.96;;;23.07;47.77
38452;BME280;24231;52.514;13.438;2023-05-23T12:33:13;100722.44;;;23.11;47.55
38452;BME280;24231;52.514;13.438;2023-05-23T12:35:42;100726.97;;;23.23;47.31
38452;BME280;24231;52.514;13.438;2023-05-23T12:38:14;100721.70;;;22.70;48.29
38452;BME280;24231;52.514;13.438;2023-05-23T12:40:41;100727.82;;;22.65;48.95
38452;BME280;24231;52.514;13.438;2023-05-23T12:43:09;100725.94;;;22.59;48.92
38452;BME280;24231;52.514;13.438;2023-05-23T12:45:36;100721.54;;;22.92;48.16
38452;BME280;24231;52.514;13.438;2023-05-23T12:48:05;100724.65;;;22.90;47.99